Time;durP1;ratioP1;P1;durP2;ratioP2;P2;SDS_P1;SDS_P2;PMS_P1;PMS_P2;Temp;Humidity;BMP_temperature;BMP_pressure;BME280_temperature;BME280_humidity;BME280_pressure;Samples;Min_cycle;Max_cycle;Signal;HPM_P1;HPM_P2
2022/06/11 00:01:31;;;;;;;6.88;5.15;;;12.40;99.90;;;;;;5033182;28;20024;-77
2022/06/11 00:04:02;;;;;;;8.90;4.97;;;12.30;99.90;;;;;;5045457;28;20021;-77
2022/06/11 00:06:29;;;;;;;7.93;5.28;;;12.30;99.90;;;;;;5032694;28;20028;-77
2022/06/11 00:08:55;;;;;;;8.48;5.40;;;12.30;99.90;;;;;;5051374;28;20059;-77
2022/06/11 00:11:22;;;;;;;7.47;5.45;;;12.30;99.90;;;;;;5050874;28;20025;-77
2022/06/11 00:13:48;;;;;;;8.57;5.80;;;12.20;99.90;;;;;;5051249;28;20485;-77
2022/06/11 00:16:15;;;;;;;8.05;5.85;;;12.20;99.90;;;;;;5050806;28;20103;-77
2022/06/11 00:18:42;;;;;;;7.68;5.47;;;12.20;99.90;;;;;;5032290;28;20055;-77
2022/06/11 00:21:08;;;;;;;8.02;5.78;;;12.20;99.90;;;;;;5050864;28;20035;-77
2022/06/11 00:23:35;;;;;;;8.32;5.47;;;12.20;99.90;;;;;;5033069;28;20021;-77
2022/06/11 00:26:02;;;;;;;8.38;5.88;;;12.10;99.90;;;;;;5050565;28;20037;-77
2022/06/11 00:28:28;;;;;;;13.20;5.57;;;12.10;99.90;;;;;;5050767;28;20028;-77
2022/06/11 00:30:54;;;;;;;10.85;5.85;;;12.10;99.90;;;;;;5050901;28;20370;-77
2022/06/11 00:33:20;;;;;;;9.85;5.55;;;12.10;99.90;;;;;;5050713;28;20025;-77
2022/06/11 00:35:46;;;;;;;7.75;5.57;;;12.00;99.90;;;;;;5050546;28;20021;-77
2022/06/11 00:38:13;;;;;;;7.55;5.47;;;12.00;99.90;;;;;;5050695;28;20017;-77
2022/06/11 00:40:42;;;;;;;8.90;6.07;;;12.00;99.90;;;;;;5041733;28;20029;-77
2022/06/11 00:43:09;;;;;;;10.13;5.60;;;12.00;99.90;;;;;;5046069;28;20478;-77
2022/06/11 00:45:50;;;;;;;9.13;5.30;;;11.90;99.90;;;;;;5050721;28;20025;-77
2022/06/11 00:48:24;;;;;;;8.57;5.75;;;11.90;99.90;;;;;;5052187;28;20013;-77
2022/06/11 00:50:56;;;;;;;7.88;5.60;;;11.90;99.90;;;;;;5036346;28;20017;-77
2022/06/11 00:53:36;;;;;;;7.07;5.55;;;11.90;99.90;;;;;;5035818;28;20040;-77
2022/06/11 00:56:05;;;;;;;7.57;4.90;;;11.80;99.90;;;;;;5054450;28;20036;-76
2022/06/11 00:58:36;;;;;;;7.32;5.38;;;11.80;99.90;;;;;;5054108;28;20043;-77
2022/06/11 01:01:02;;;;;;;5.95;5.20;;;11.80;99.90;;;;;;5054255;28;20465;-77
2022/06/11 01:03:35;;;;;;;9.38;4.95;;;11.80;99.90;;;;;;5053954;28;20036;-77
2022/06/11 01:06:12;;;;;;;6.53;4.63;;;11.70;99.90;;;;;;5053988;28;20025;-77
2022/06/11 01:08:44;;;;;;;12.55;5.60;;;11.70;99.90;;;;;;5053699;28;20037;-77
2022/06/11 01:11:35;;;;;;;10.07;5.38;;;11.70;99.90;;;;;;5054092;28;20035;-77
2022/06/11 01:14:16;;;;;;;9.00;5.00;;;11.70;99.90;;;;;;5035325;28;20029;-77
2022/06/11 01:17:13;;;;;;;6.80;4.82;;;11.70;99.90;;;;;;5054119;28;20548;-77
2022/06/11 01:20:09;;;;;;;9.80;6.35;;;11.60;99.90;;;;;;5050239;28;20056;-77
2022/06/11 01:22:59;;;;;;;7.22;4.85;;;11.60;99.90;;;;;;5053826;28;20751;-77
2022/06/11 01:26:01;;;;;;;6.97;4.70;;;11.60;99.90;;;;;;5054113;28;20104;-77
2022/06/11 01:28:49;;;;;;;5.97;4.43;;;11.50;99.90;;;;;;5054106;28;20021;-77
2022/06/11 01:31:24;;;;;;;8.02;5.18;;;11.50;99.90;;;;;;5036253;28;20359;-77
2022/06/11 01:34:18;;;;;;;7.45;4.70;;;11.50;99.90;;;;;;5054397;28;20036;-77
2022/06/11 01:36:50;;;;;;;8.80;4.70;;;11.50;99.90;;;;;;5055178;28;20021;-77
2022/06/11 01:39:24;;;;;;;6.05;4.85;;;11.40;99.90;;;;;;5054249;28;20025;-77
2022/06/11 01:42:17;;;;;;;8.82;4.80;;;11.40;99.90;;;;;;5053687;28;20032;-77
2022/06/11 01:44:44;;;;;;;7.18;5.20;;;11.40;99.90;;;;;;5050920;28;20100;-77
2022/06/11 01:47:13;;;;;;;6.87;5.00;;;11.30;99.90;;;;;;5053498;28;20024;-76
2022/06/11 01:49:45;;;;;;;8.55;5.18;;;11.30;99.90;;;;;;5052911;28;20124;-77
2022/06/11 01:52:13;;;;;;;10.70;5.20;;;11.30;99.90;;;;;;5053596;28;20385;-77
2022/06/11 01:55:02;;;;;;;6.97;5.10;;;11.20;99.90;;;;;;5036128;28;20358;-77
2022/06/11 01:57:55;;;;;;;8.38;4.65;;;11.30;99.90;;;;;;5053472;28;20099;-77
2022/06/11 02:00:28;;;;;;;8.63;5.82;;;11.20;99.90;;;;;;5021578;28;20045;-77
2022/06/11 02:03:12;;;;;;;8.65;5.20;;;11.20;99.90;;;;;;5052218;28;20028;-77
2022/06/11 02:05:48;;;;;;;6.20;5.00;;;11.20;99.90;;;;;;5053564;28;20024;-77
2022/06/11 02:08:21;;;;;;;6.97;5.22;;;11.10;99.90;;;;;;5052422;28;20022;-77
2022/06/11 02:10:50;;;;;;;6.13;4.85;;;11.20;99.90;;;;;;5052878;28;20025;-77
2022/06/11 02:13:44;;;;;;;7.40;4.85;;;11.10;99.90;;;;;;5053042;28;20326;-77
2022/06/11 02:16:22;;;;;;;8.68;5.10;;;11.10;99.90;;;;;;5052798;28;20039;-77
2022/06/11 02:18:50;;;;;;;7.20;4.57;;;11.10;99.90;;;;;;5050095;28;20170;-77
2022/06/11 02:21:25;;;;;;;8.00;4.30;;;11.10;99.90;;;;;;5052837;28;20009;-77
2022/06/11 02:24:09;;;;;;;7.03;4.55;;;11.00;99.90;;;;;;5052775;28;20021;-77
2022/06/11 02:26:39;;;;;;;9.90;5.25;;;11.00;99.90;;;;;;5052672;28;20040;-77
2022/06/11 02:29:07;;;;;;;10.02;5.65;;;11.00;99.90;;;;;;5034755;28;20021;-77
2022/06/11 02:31:39;;;;;;;8.13;5.05;;;10.90;99.90;;;;;;5052439;28;20036;-76
2022/06/11 02:34:07;;;;;;;6.97;5.25;;;10.90;99.90;;;;;;5052182;28;20033;-77
2022/06/11 02:36:54;;;;;;;6.45;4.80;;;10.90;99.90;;;;;;5052674;28;20021;-77
2022/06/11 02:39:20;;;;;;;7.82;4.95;;;10.90;99.90;;;;;;5052479;28;20470;-77
2022/06/11 02:41:47;;;;;;;9.20;4.63;;;10.90;99.90;;;;;;5051992;28;20021;-77
2022/06/11 02:44:13;;;;;;;5.85;4.80;;;10.90;99.90;;;;;;5052429;28;20021;-76
2022/06/11 02:46:41;;;;;;;8.43;4.93;;;10.80;99.90;;;;;;5034022;28;20021;-76
2022/06/11 02:49:08;;;;;;;7.77;5.17;;;10.80;99.90;;;;;;5051887;28;20560;-76
2022/06/11 02:51:34;;;;;;;6.68;4.68;;;10.80;99.90;;;;;;5051928;28;20035;-77
2022/06/11 02:54:00;;;;;;;10.40;5.50;;;10.80;99.90;;;;;;5053919;28;20029;-77
2022/06/11 02:56:26;;;;;;;9.85;5.50;;;10.80;99.90;;;;;;5052802;28;20049;-77
2022/06/11 02:58:53;;;;;;;8.30;5.70;;;10.80;99.90;;;;;;5052061;28;20033;-77
2022/06/11 03:01:21;;;;;;;9.37;5.27;;;10.80;99.90;;;;;;5051970;28;20436;-78
2022/06/11 03:03:49;;;;;;;8.50;5.53;;;10.80;99.90;;;;;;5053843;28;20028;-77
2022/06/11 03:06:15;;;;;;;6.85;4.72;;;10.70;99.90;;;;;;5054334;28;20017;-77
2022/06/11 03:08:41;;;;;;;10.55;5.15;;;10.70;99.90;;;;;;5051692;28;20297;-77
2022/06/11 03:11:07;;;;;;;6.45;5.30;;;10.70;99.90;;;;;;5051133;28;20028;-77
2022/06/11 03:13:33;;;;;;;6.43;4.88;;;10.70;99.90;;;;;;5053131;28;20035;-77
2022/06/11 03:15:59;;;;;;;8.67;5.23;;;10.70;99.90;;;;;;5052551;28;20025;-77
2022/06/11 03:18:26;;;;;;;6.50;5.35;;;10.70;99.90;;;;;;5050945;28;20025;-77
2022/06/11 03:20:53;;;;;;;11.13;5.70;;;10.70;99.90;;;;;;5052635;28;20024;-77
2022/06/11 03:23:19;;;;;;;8.45;5.20;;;10.70;99.90;;;;;;5051496;28;20029;-77
2022/06/11 03:25:45;;;;;;;7.72;5.10;;;10.70;99.90;;;;;;5051985;28;20028;-77
2022/06/11 03:28:18;;;;;;;9.18;5.07;;;10.70;99.90;;;;;;5051881;28;20108;-77
2022/06/11 03:30:45;;;;;;;8.15;5.22;;;10.70;99.90;;;;;;5051425;28;20470;-77
2022/06/11 03:33:11;;;;;;;8.70;4.82;;;10.70;99.90;;;;;;5051665;28;20024;-77
2022/06/11 03:35:36;;;;;;;7.30;5.10;;;10.70;99.90;;;;;;5039223;28;20119;-77
2022/06/11 03:38:02;;;;;;;10.30;4.93;;;10.70;99.90;;;;;;5049938;28;20814;-77
2022/06/11 03:40:28;;;;;;;8.77;5.15;;;10.70;99.90;;;;;;5051091;28;20028;-77
2022/06/11 03:42:54;;;;;;;7.10;4.80;;;10.70;99.90;;;;;;5051327;28;20111;-77
2022/06/11 03:45:20;;;;;;;8.65;4.60;;;10.70;99.90;;;;;;5051261;28;20100;-77
2022/06/11 03:47:46;;;;;;;5.63;4.80;;;10.70;99.90;;;;;;5051642;28;20033;-76
2022/06/11 03:50:29;;;;;;;5.95;4.38;;;10.70;99.90;;;;;;5051501;28;20060;-77
2022/06/11 03:52:55;;;;;;;6.78;5.43;;;10.70;99.90;;;;;;5050560;28;20535;-77
2022/06/11 03:55:22;;;;;;;6.30;4.97;;;10.70;99.90;;;;;;5044895;28;20029;-77
2022/06/11 03:57:48;;;;;;;7.27;4.90;;;10.80;99.90;;;;;;5051403;28;20032;-76
2022/06/11 04:00:16;;;;;;;7.38;4.97;;;10.80;99.90;;;;;;5051331;28;20377;-77
2022/06/11 04:02:42;;;;;;;6.40;5.05;;;10.80;99.90;;;;;;5036511;28;20029;-77
2022/06/11 04:05:08;;;;;;;6.75;5.28;;;10.90;99.90;;;;;;5053307;28;20128;-77
2022/06/11 04:07:36;;;;;;;8.05;4.97;;;10.90;99.90;;;;;;5051514;28;20104;-77
2022/06/11 04:10:03;;;;;;;7.85;4.50;;;10.90;99.90;;;;;;5032399;28;20433;-77
2022/06/11 04:12:28;;;;;;;6.65;4.75;;;11.00;99.90;;;;;;5042847;28;20104;-77
2022/06/11 04:14:54;;;;;;;6.82;4.60;;;11.00;99.90;;;;;;5054018;28;20111;-77
2022/06/11 04:17:26;;;;;;;7.78;4.50;;;11.10;99.90;;;;;;5054773;28;20095;-77
2022/06/11 04:19:52;;;;;;;7.43;5.07;;;11.10;99.90;;;;;;5044608;28;20125;-77
2022/06/11 04:22:19;;;;;;;6.95;4.45;;;11.10;99.90;;;;;;5052705;28;20036;-77
2022/06/11 04:24:46;;;;;;;7.35;4.88;;;11.20;99.90;;;;;;5055229;28;20104;-77
2022/06/11 04:27:14;;;;;;;8.13;5.15;;;11.20;99.90;;;;;;5060816;28;20043;-78
2022/06/11 04:29:44;;;;;;;5.35;4.82;;;11.20;99.90;;;;;;5059582;28;20028;-77
2022/06/11 04:32:15;;;;;;;6.05;5.25;;;11.30;99.90;;;;;;5058881;28;20035;-77
2022/06/11 04:34:41;;;;;;;6.80;4.97;;;11.30;99.90;;;;;;5055714;28;20409;-77
2022/06/11 04:37:13;;;;;;;5.70;5.03;;;11.40;99.90;;;;;;5036839;28;20355;-77
2022/06/11 04:39:40;;;;;;;7.65;5.28;;;11.50;99.90;;;;;;5055140;28;20058;-77
2022/06/11 04:42:06;;;;;;;8.73;5.05;;;11.50;99.90;;;;;;5055092;28;20065;-77
2022/06/11 04:44:31;;;;;;;8.57;5.18;;;11.60;99.90;;;;;;5054264;28;20426;-77
2022/06/11 04:46:57;;;;;;;6.63;4.47;;;11.70;99.90;;;;;;5054266;28;20116;-77
2022/06/11 04:49:23;;;;;;;7.07;5.18;;;11.80;99.90;;;;;;5054330;28;20078;-77
2022/06/11 04:51:49;;;;;;;8.55;5.00;;;11.90;99.90;;;;;;5054637;28;20028;-77
2022/06/11 04:54:14;;;;;;;7.28;4.60;;;12.00;99.90;;;;;;5054312;28;20466;-78
2022/06/11 04:56:40;;;;;;;5.70;4.47;;;12.10;99.90;;;;;;5054021;28;20101;-77
2022/06/11 04:59:06;;;;;;;6.57;5.00;;;12.20;99.90;;;;;;5054072;28;20458;-77
2022/06/11 05:01:32;;;;;;;6.63;4.80;;;12.30;99.90;;;;;;5054205;28;20029;-78
2022/06/11 05:03:58;;;;;;;5.60;4.65;;;12.30;99.90;;;;;;5036425;28;20484;-77
2022/06/11 05:06:28;;;;;;;7.38;4.65;;;12.40;99.90;;;;;;5054081;28;20040;-77
2022/06/11 05:08:54;;;;;;;6.55;4.82;;;12.60;99.90;;;;;;5054257;28;20029;-78
2022/06/11 05:11:19;;;;;;;7.57;4.68;;;12.60;99.90;;;;;;5053502;28;20021;-78
2022/06/11 05:13:45;;;;;;;4.68;3.97;;;12.70;99.90;;;;;;5053445;28;20032;-78
2022/06/11 05:16:14;;;;;;;7.45;4.25;;;12.90;99.90;;;;;;5027518;28;20029;-78
2022/06/11 05:18:39;;;;;;;7.20;4.20;;;13.00;99.90;;;;;;5054013;28;20025;-77
2022/06/11 05:21:05;;;;;;;8.00;4.00;;;13.10;99.90;;;;;;5058669;28;20091;-78
2022/06/11 05:23:30;;;;;;;6.20;4.13;;;13.20;99.90;;;;;;5059773;28;20025;-78
2022/06/11 05:25:56;;;;;;;7.10;4.07;;;13.30;99.90;;;;;;5060875;28;20033;-78
2022/06/11 05:28:29;;;;;;;4.78;3.42;;;13.50;99.90;;;;;;5066651;28;20051;-78
2022/06/11 05:30:56;;;;;;;5.55;3.17;;;13.60;99.90;;;;;;5056897;28;20029;-78
2022/06/11 05:33:22;;;;;;;4.57;3.20;;;13.70;99.90;;;;;;5066316;28;20082;-78
2022/06/11 05:35:49;;;;;;;6.63;3.28;;;13.90;99.90;;;;;;5053284;28;20056;-78
2022/06/11 05:38:18;;;;;;;6.07;3.58;;;14.10;99.90;;;;;;5056952;28;20024;-78
2022/06/11 05:40:47;;;;;;;4.38;3.20;;;14.30;99.90;;;;;;5057357;28;20032;-78
2022/06/11 05:43:13;;;;;;;6.75;3.30;;;14.40;99.90;;;;;;5061270;28;20013;-78
2022/06/11 05:45:55;;;;;;;3.97;3.10;;;14.50;99.90;;;;;;5063773;28;20032;-78
2022/06/11 05:48:38;;;;;;;4.82;3.20;;;14.70;99.90;;;;;;5055843;28;20844;-78
2022/06/11 05:51:05;;;;;;;4.40;3.35;;;14.80;99.90;;;;;;5044194;28;20060;-78
2022/06/11 05:53:34;;;;;;;3.72;2.92;;;15.00;99.90;;;;;;5045031;28;20052;-78
2022/06/11 05:56:01;;;;;;;5.30;2.88;;;15.20;99.90;;;;;;5041499;28;20560;-78
2022/06/11 05:58:36;;;;;;;4.72;3.10;;;15.30;99.90;;;;;;5031978;28;20422;-78
2022/06/11 06:01:03;;;;;;;11.35;3.03;;;15.40;99.90;;;;;;5012590;28;20034;-78
2022/06/11 06:03:28;;;;;;;3.13;2.60;;;15.60;99.90;;;;;;5038313;28;20401;-79
2022/06/11 06:05:54;;;;;;;4.72;3.00;;;15.70;99.90;;;;;;5044538;28;20026;-79
2022/06/11 06:08:20;;;;;;;4.95;2.88;;;15.80;99.90;;;;;;5043427;28;20067;-79
2022/06/11 06:10:45;;;;;;;5.07;3.03;;;15.90;99.90;;;;;;5040771;28;20028;-79
2022/06/11 06:15:56;;;;;;;5.85;3.03;;;16.10;99.90;;;;;;5045665;28;20528;-79
2022/06/11 06:18:21;;;;;;;5.05;2.70;;;16.20;99.90;;;;;;5039446;28;20029;-79
2022/06/11 06:20:48;;;;;;;4.82;2.90;;;16.30;99.90;;;;;;5037945;28;20796;-79
2022/06/11 06:23:14;;;;;;;5.80;3.03;;;16.50;99.90;;;;;;5028446;28;20029;-84
2022/06/11 06:25:40;;;;;;;6.15;2.88;;;16.70;99.90;;;;;;5029525;28;20035;-70
2022/06/11 06:28:06;;;;;;;4.85;3.40;;;16.70;99.90;;;;;;5025411;28;20482;-79
2022/06/11 06:30:33;;;;;;;3.80;2.88;;;16.80;99.90;;;;;;5026641;28;20500;-69
2022/06/11 06:32:58;;;;;;;4.57;2.60;;;16.90;99.90;;;;;;5027709;28;20026;-69
2022/06/11 06:35:24;;;;;;;4.75;2.80;;;17.10;99.90;;;;;;5010854;28;20107;-69
2022/06/11 06:37:49;;;;;;;7.25;2.90;;;17.20;99.90;;;;;;5013659;28;20045;-67
2022/06/11 06:40:15;;;;;;;4.68;2.90;;;17.40;99.90;;;;;;5024399;28;20135;-67
2022/06/11 06:42:41;;;;;;;5.72;3.00;;;17.50;99.90;;;;;;5026952;28;20559;-67
2022/06/11 06:45:07;;;;;;;3.95;2.67;;;17.60;99.90;;;;;;5030992;28;20112;-67
2022/06/11 06:47:35;;;;;;;3.95;2.58;;;17.80;99.90;;;;;;5032144;28;20021;-67
2022/06/11 06:50:01;;;;;;;5.50;2.70;;;17.90;99.90;;;;;;5036152;28;20063;-67
2022/06/11 06:52:27;;;;;;;3.40;2.50;;;18.00;99.90;;;;;;5041212;28;20022;-67
2022/06/11 06:54:53;;;;;;;3.95;2.50;;;18.10;99.90;;;;;;5034834;28;20429;-68
2022/06/11 06:57:19;;;;;;;3.30;2.40;;;18.30;99.90;;;;;;5043195;28;20056;-68
2022/06/11 06:59:44;;;;;;;5.50;2.53;;;18.30;99.90;;;;;;5013976;28;20162;-69
2022/06/11 07:02:10;;;;;;;3.08;2.30;;;18.40;99.90;;;;;;5032121;28;20025;-68
2022/06/11 07:04:37;;;;;;;8.40;2.20;;;18.50;99.90;;;;;;5032210;28;20018;-68
2022/06/11 07:07:03;;;;;;;3.60;2.50;;;18.50;99.90;;;;;;5032369;28;20021;-68
2022/06/11 07:09:29;;;;;;;4.90;2.50;;;18.60;99.90;;;;;;5031957;28;20032;-67
2022/06/11 07:11:55;;;;;;;3.05;2.30;;;18.60;99.90;;;;;;5031965;28;20033;-68
2022/06/11 07:14:21;;;;;;;5.40;2.45;;;18.70;99.90;;;;;;5032692;28;20026;-68
2022/06/11 07:16:57;;;;;;;2.90;2.60;;;18.70;99.90;;;;;;5031001;28;20067;-68
2022/06/11 07:19:54;;;;;;;4.07;2.67;;;18.70;99.90;;;;;;5030994;28;20022;-68
2022/06/11 07:22:26;;;;;;;5.63;2.70;;;18.80;99.90;;;;;;5012956;28;20041;-68
2022/06/11 07:24:51;;;;;;;2.83;2.50;;;18.80;99.90;;;;;;5032173;28;20478;-69
2022/06/11 07:27:26;;;;;;;5.53;2.55;;;18.80;99.90;;;;;;5032600;28;20021;-68
2022/06/11 07:29:57;;;;;;;6.45;2.53;;;18.80;99.90;;;;;;5026590;28;20055;-67
2022/06/11 07:32:25;;;;;;;4.82;3.30;;;18.90;99.90;;;;;;5038558;28;20494;-67
2022/06/11 07:34:50;;;;;;;5.57;2.40;;;18.90;99.90;;;;;;5031975;28;20088;-67
2022/06/11 07:37:18;;;;;;;3.45;2.40;;;19.00;99.90;;;;;;5032346;28;20037;-68
2022/06/11 07:39:44;;;;;;;3.83;2.20;;;19.00;99.90;;;;;;5032579;28;20477;-67
2022/06/11 07:42:10;;;;;;;3.95;2.30;;;19.00;99.90;;;;;;5022273;28;20426;-68
2022/06/11 07:44:37;;;;;;;4.95;2.53;;;19.10;99.90;;;;;;5027400;28;20026;-76
2022/06/11 07:47:04;;;;;;;3.38;2.47;;;19.20;99.90;;;;;;5034540;28;20041;-71
2022/06/11 07:49:29;;;;;;;4.20;2.60;;;19.20;99.90;;;;;;5042290;28;20061;-70
2022/06/11 07:51:55;;;;;;;3.75;2.35;;;19.30;99.90;;;;;;5056134;28;20095;-72
2022/06/11 07:54:20;;;;;;;3.33;2.50;;;19.30;99.90;;;;;;5073329;28;20025;-79
2022/06/11 07:56:46;;;;;;;5.38;2.58;;;19.30;99.90;;;;;;5048033;28;20029;-69
2022/06/11 07:59:12;;;;;;;6.57;2.75;;;19.30;99.90;;;;;;5051487;28;20036;-69
2022/06/11 08:01:38;;;;;;;4.22;2.25;;;19.40;99.90;;;;;;5061452;28;20036;-69
2022/06/11 08:04:04;;;;;;;2.95;2.22;;;19.60;99.90;;;;;;5046631;28;20484;-70
2022/06/11 08:06:31;;;;;;;3.70;2.28;;;19.70;99.90;;;;;;5052763;28;20028;-70
2022/06/11 08:08:57;;;;;;;3.85;2.28;;;19.70;99.90;;;;;;5032890;28;20018;-69
2022/06/11 08:11:22;;;;;;;3.85;2.50;;;19.80;99.90;;;;;;5044821;28;20049;-70
2022/06/11 08:13:48;;;;;;;3.03;2.00;;;19.80;99.90;;;;;;5052481;28;20095;-69
2022/06/11 08:16:14;;;;;;;3.75;2.35;;;19.80;99.90;;;;;;5059622;28;20047;-69
2022/06/11 08:18:40;;;;;;;4.35;2.20;;;19.90;99.90;;;;;;5053561;28;20446;-68
2022/06/11 08:21:06;;;;;;;4.30;2.30;;;19.90;99.90;;;;;;5053250;28;20025;-69
2022/06/11 08:23:31;;;;;;;4.60;3.15;;;20.00;99.90;;;;;;5052573;28;20550;-69
2022/06/11 08:25:59;;;;;;;5.28;2.47;;;20.00;99.90;;;;;;5057685;28;20377;-69
2022/06/11 08:28:26;;;;;;;5.15;2.10;;;20.20;99.90;;;;;;5064732;28;20036;-69
2022/06/11 08:30:52;;;;;;;4.47;2.20;;;20.30;99.90;;;;;;5071491;28;20032;-69
2022/06/11 08:33:18;;;;;;;10.52;2.67;;;20.30;99.90;;;;;;5050473;28;20036;-73
2022/06/11 08:35:43;;;;;;;4.45;2.28;;;20.30;99.90;;;;;;5053092;28;20036;-69
2022/06/11 08:38:09;;;;;;;4.00;2.10;;;20.40;99.90;;;;;;5070040;28;20029;-70
2022/06/11 08:40:39;;;;;;;4.43;2.10;;;20.40;99.90;;;;;;5072875;28;20079;-72
2022/06/11 08:43:17;;;;;;;3.38;2.20;;;20.50;99.90;;;;;;5066738;28;20473;-70
2022/06/11 08:46:07;;;;;;;6.10;2.60;;;20.60;99.90;;;;;;5055969;28;20025;-70
2022/06/11 08:48:42;;;;;;;5.05;2.00;;;20.60;99.90;;;;;;5072893;28;20080;-70
2022/06/11 08:51:26;;;;;;;7.38;2.20;;;20.70;99.90;;;;;;5058669;28;20055;-70
2022/06/11 08:53:54;;;;;;;6.40;2.10;;;20.70;99.90;;;;;;5053052;28;20108;-69
2022/06/11 08:56:32;;;;;;;6.57;2.50;;;20.70;99.90;;;;;;5052095;28;20028;-70
2022/06/11 08:59:28;;;;;;;4.20;2.05;;;20.80;99.90;;;;;;5055031;28;20028;-70
2022/06/11 09:02:26;;;;;;;3.92;2.00;;;20.80;99.90;;;;;;5041532;28;20021;-70
2022/06/11 09:05:10;;;;;;;3.20;2.20;;;20.90;99.90;;;;;;5051193;28;20059;-70
2022/06/11 09:08:08;;;;;;;10.40;2.75;;;21.00;99.90;;;;;;5041881;28;20032;-69
2022/06/11 09:10:51;;;;;;;4.75;2.38;;;21.10;99.90;;;;;;4959728;28;20043;-69
2022/06/11 09:13:34;;;;;;;2.88;1.90;;;21.30;99.90;;;;;;5053926;28;20457;-69
2022/06/11 09:16:29;;;;;;;3.35;2.10;;;21.40;99.90;;;;;;5061281;28;20033;-69
2022/06/11 09:19:18;;;;;;;4.85;2.30;;;21.40;99.90;;;;;;5021101;28;20448;-81
2022/06/11 09:22:30;;;;;;;4.40;2.10;;;21.50;99.90;;;;;;5064162;28;20024;-82
2022/06/11 09:25:33;;;;;;;2.45;2.13;;;21.60;99.90;;;;;;4967812;28;20559;-82
2022/06/11 09:28:07;;;;;;;4.60;2.15;;;21.80;99.90;;;;;;4983328;28;20137;-81
2022/06/11 09:30:46;;;;;;;4.72;2.58;;;21.90;99.90;;;;;;5022041;28;20456;-82
2022/06/11 09:33:40;;;;;;;3.35;1.80;;;22.00;99.90;;;;;;5051624;28;20128;-82
2022/06/11 09:36:13;;;;;;;5.97;2.13;;;22.40;99.90;;;;;;5055352;28;20036;-82
2022/06/11 09:38:54;;;;;;;4.00;2.00;;;22.70;99.90;;;;;;5054969;28;20025;-82
2022/06/11 09:41:32;;;;;;;2.88;1.73;;;22.90;99.90;;;;;;5050464;28;20029;-82
2022/06/11 09:44:08;;;;;;;3.45;1.90;;;23.10;99.90;;;;;;5034336;28;20028;-82
2022/06/11 09:46:59;;;;;;;7.50;2.58;;;23.40;99.90;;;;;;5055403;28;20025;-82
2022/06/11 09:49:40;;;;;;;2.40;1.85;;;23.90;99.90;;;;;;5009031;28;20402;-82
2022/06/11 09:52:29;;;;;;;3.38;2.05;;;24.20;99.90;;;;;;5068563;28;20114;-82
2022/06/11 09:55:29;;;;;;;5.25;2.10;;;24.40;99.90;;;;;;5054605;28;20036;-81
2022/06/11 09:58:07;;;;;;;5.25;2.25;;;24.60;99.90;;;;;;5016658;28;20055;-82
2022/06/11 10:00:50;;;;;;;2.72;1.80;;;24.40;99.90;;;;;;5061894;28;20028;-83
2022/06/11 10:03:32;;;;;;;4.57;1.85;;;24.40;99.90;;;;;;5054483;28;20100;-82
2022/06/11 10:06:07;;;;;;;6.93;1.90;;;24.40;99.90;;;;;;5044944;28;20021;-82
2022/06/11 10:08:52;;;;;;;3.95;1.98;;;24.30;99.90;;;;;;5068592;28;20512;-82
2022/06/11 10:11:45;;;;;;;3.70;2.00;;;24.30;99.90;;;;;;5043132;28;20106;-82
2022/06/11 10:14:29;;;;;;;4.20;1.98;;;24.00;99.90;;;;;;5037426;28;20441;-83
2022/06/11 10:17:17;;;;;;;5.05;2.60;;;23.80;99.90;;;;;;5048915;28;20023;-82
2022/06/11 10:20:19;;;;;;;2.85;1.90;;;23.50;99.90;;;;;;5042453;28;20028;-82
2022/06/11 10:23:20;;;;;;;3.88;2.08;;;23.30;99.90;;;;;;5058784;28;20051;-82
2022/06/11 10:26:25;;;;;;;4.25;1.70;;;23.10;99.90;;;;;;5058116;28;20033;-81
2022/06/11 10:29:08;;;;;;;5.10;1.90;;;23.30;99.90;;;;;;5043853;28;20120;-82
2022/06/11 10:31:44;;;;;;;2.88;1.73;;;24.00;99.90;;;;;;5023926;28;20101;-81
2022/06/11 10:34:26;;;;;;;2.75;1.52;;;24.50;99.90;;;;;;5054462;28;20040;-81
2022/06/11 10:37:08;;;;;;;3.40;1.92;;;25.10;99.90;;;;;;5057721;28;20028;-82
2022/06/11 10:39:45;;;;;;;2.70;1.52;;;25.40;99.90;;;;;;5054232;28;20029;-82
2022/06/11 10:42:40;;;;;;;3.08;1.77;;;25.40;99.90;;;;;;5054780;28;20037;-82
2022/06/11 10:45:13;;;;;;;2.88;1.60;;;25.10;99.90;;;;;;5034760;28;20040;-81
2022/06/11 10:47:51;;;;;;;5.65;1.88;;;25.20;99.90;;;;;;5048056;28;20028;-82
2022/06/11 10:50:33;;;;;;;2.45;1.42;;;25.40;99.90;;;;;;5048694;28;20119;-82
2022/06/11 10:53:27;;;;;;;3.28;1.65;;;25.80;99.90;;;;;;5058687;28;20461;-83
2022/06/11 10:56:09;;;;;;;2.90;1.58;;;25.90;99.90;;;;;;5036199;28;20040;-82
2022/06/11 10:59:03;;;;;;;2.20;1.50;;;25.80;99.40;;;;;;5041220;28;20032;-82
2022/06/11 11:01:34;;;;;;;5.00;1.60;;;26.10;99.90;;;;;;5058425;28;20021;-82
2022/06/11 11:04:17;;;;;;;4.50;1.50;;;26.10;99.50;;;;;;5054076;28;20021;-82
2022/06/11 11:06:43;;;;;;;2.92;1.63;;;26.30;99.90;;;;;;5032842;28;20027;-82
2022/06/11 11:09:22;;;;;;;5.00;1.75;;;26.60;99.60;;;;;;5053806;28;20023;-82
2022/06/11 11:11:58;;;;;;;4.32;1.52;;;26.80;99.90;;;;;;5037125;28;20028;-82
2022/06/11 11:14:40;;;;;;;2.97;1.20;;;26.90;97.40;;;;;;5035829;28;20021;-81
2022/06/11 11:17:22;;;;;;;3.90;1.42;;;27.00;97.00;;;;;;5047803;28;20048;-82
2022/06/11 11:20:39;;;;;;;3.58;1.48;;;26.90;95.90;;;;;;5053726;28;20021;-83
2022/06/11 11:23:18;;;;;;;5.00;1.58;;;27.00;95.60;;;;;;5053428;28;20442;-82
2022/06/11 11:26:04;;;;;;;;;;;;;;;;;;;;;
2022/06/11 11:28:39;;;;;;;3.33;1.30;;;27.60;95.20;;;;;;5053659;28;20013;-82
2022/06/11 11:31:17;;;;;;;2.08;1.30;;;27.80;95.90;;;;;;5052938;28;20013;-82
2022/06/11 11:34:01;;;;;;;3.47;1.25;;;28.10;95.50;;;;;;5053272;28;20404;-82
2022/06/11 11:36:29;;;;;;;4.07;1.43;;;28.20;91.90;;;;;;5053212;28;20424;-82
2022/06/11 11:39:12;;;;;;;4.05;1.50;;;28.30;92.20;;;;;;5052974;28;20031;-82
2022/06/11 11:41:53;;;;;;;2.45;1.45;;;28.30;91.70;;;;;;5052914;28;20029;-82
2022/06/11 11:44:22;;;;;;;2.92;1.38;;;28.10;91.00;;;;;;5066862;28;20017;-83
2022/06/11 11:46:52;;;;;;;2.70;1.60;;;28.00;94.50;;;;;;5035045;28;20488;-83
2022/06/11 11:49:25;;;;;;;4.75;1.95;;;27.70;93.10;;;;;;5053253;28;20048;-82
2022/06/11 11:51:51;;;;;;;3.13;1.30;;;27.80;90.30;;;;;;5045368;28;20027;-82
2022/06/11 11:54:21;;;;;;;4.57;1.40;;;28.00;94.10;;;;;;5073287;28;20404;-83
2022/06/11 11:57:13;;;;;;;2.30;1.42;;;28.20;89.80;;;;;;5058791;28;20024;-83
2022/06/11 11:59:51;;;;;;;2.63;1.23;;;28.70;87.40;;;;;;5072498;28;20021;-83
2022/06/11 12:02:21;;;;;;;2.20;1.10;;;28.70;88.80;;;;;;5040811;28;20044;-83
2022/06/11 12:12:09;;;;;;;2.15;1.40;;;29.50;83.70;;;;;;5016582;28;20072;-82
2022/06/11 12:14:50;;;;;;;2.22;1.33;;;29.80;82.40;;;;;;5032853;28;20490;-82
2022/06/11 12:17:41;;;;;;;1.95;0.98;;;29.60;81.50;;;;;;5055899;28;20053;-83
2022/06/11 12:20:31;;;;;;;1.95;1.30;;;29.40;81.70;;;;;;5037784;28;20052;-83
2022/06/11 12:23:08;;;;;;;3.35;1.40;;;28.80;83.80;;;;;;5038849;28;20017;-83
2022/06/11 12:25:41;;;;;;;1.70;1.35;;;27.80;81.80;;;;;;5062000;28;20414;-82
2022/06/11 12:28:22;;;;;;;2.00;1.20;;;27.60;86.40;;;;;;5051204;28;20025;-84
2022/06/11 12:30:51;;;;;;;2.00;1.13;;;27.60;83.90;;;;;;5051668;28;20389;-85
2022/06/11 12:33:19;;;;;;;3.60;1.17;;;28.00;86.30;;;;;;5045516;28;20029;-85
2022/06/11 12:36:03;;;;;;;2.38;1.35;;;28.20;85.00;;;;;;5051852;28;20029;-85
2022/06/11 12:38:52;;;;;;;2.90;1.35;;;28.40;87.30;;;;;;5040314;28;20029;-85
2022/06/11 12:41:39;;;;;;;2.72;1.50;;;28.60;83.80;;;;;;5052022;28;20120;-85
2022/06/11 12:44:10;;;;;;;2.78;1.45;;;28.90;84.70;;;;;;5036440;28;20028;-85
2022/06/11 12:47:05;;;;;;;2.78;1.50;;;29.30;84.10;;;;;;5062221;28;20091;-83
2022/06/11 12:49:55;;;;;;;;;;;29.60;84.20;;;;;;5056291;28;20045;-83
2022/06/11 12:52:44;;;;;;;3.30;2.03;;;29.50;80.90;;;;;;5054494;28;19915;-83
2022/06/11 12:56:02;;;;;;;2.33;1.48;;;30.00;79.60;;;;;;5054513;28;20405;-83
2022/06/11 12:58:31;;;;;;;2.33;1.35;;;30.20;76.00;;;;;;5053711;28;20021;-83
2022/06/11 13:01:15;;;;;;;1.80;1.10;;;30.50;74.30;;;;;;5036682;28;20118;-83
2022/06/11 13:04:08;;;;;;;3.58;1.33;;;30.80;84.90;;;;;;5031634;28;20026;-84
2022/06/11 13:06:40;;;;;;;1.70;1.23;;;30.80;79.90;;;;;;5049250;28;20096;-84
2022/06/11 13:09:25;;;;;;;2.47;1.10;;;31.20;77.10;;;;;;5054828;28;20087;-84
2022/06/11 13:12:09;;;;;;;2.65;1.40;;;31.50;71.70;;;;;;5036331;28;20040;-84
2022/06/11 13:14:54;;;;;;;;;;;31.00;76.90;;;;;;5054780;28;20106;-84
2022/06/11 13:17:41;;;;;;;2.25;1.17;;;30.50;73.30;;;;;;5054754;28;19904;-84
2022/06/11 13:20:21;;;;;;;3.15;1.10;;;30.50;72.00;;;;;;5045695;28;20378;-84
2022/06/11 13:23:21;;;;;;;2.42;1.20;;;30.30;73.60;;;;;;5057940;28;20035;-84
2022/06/11 13:26:33;;;;;;;3.67;1.48;;;30.10;73.80;;;;;;5053771;28;20029;-84
2022/06/11 13:29:17;;;;;;;2.90;1.38;;;29.90;73.40;;;;;;5016232;28;20029;-84
2022/06/11 13:32:19;;;;;;;3.72;1.27;;;29.70;74.50;;;;;;5044252;28;20029;-71
2022/06/11 13:35:06;;;;;;;2.22;1.13;;;29.40;75.60;;;;;;4954222;28;20035;-70